sensor_id;sensor_type;location;lat;lon;timestamp;pressure;altitude;pressure_sealevel;temperature;humidity
43115;BME280;28727;50.068;14.452;2023-06-14T00:00:34;99087.03;;;14.40;61.33
43115;BME280;28727;50.068;14.452;2023-06-14T00:03:09;99090.69;;;14.39;61.35
43115;BME280;28727;50.068;14.452;2023-06-14T00:05:49;99087.44;;;14.37;61.57
43115;BME280;28727;50.068;14.452;2023-06-14T00:08:21;99091.91;;;14.37;61.32
43115;BME280;28727;50.068;14.452;2023-06-14T00:10:54;99090.41;;;14.27;61.60
43115;BME280;28727;50.068;14.452;2023-06-14T00:13:25;99089.00;;;14.25;61.83
43115;BME280;28727;50.068;14.452;2023-06-14T00:15:57;99095.97;;;14.32;61.68
43115;BME280;28727;50.068;14.452;2023-06-14T00:18:29;99091.06;;;14.29;61.15
43115;BME280;28727;50.068;14.452;2023-06-14T00:21:00;99093.88;;;14.21;61.70
43115;BME280;28727;50.068;14.452;2023-06-14T00:23:33;99096.53;;;14.21;61.90
43115;BME280;28727;50.068;14.452;2023-06-14T00:26:05;99093.28;;;14.19;61.47
43115;BME280;28727;50.068;14.452;2023-06-14T00:28:41;99095.69;;;14.14;61.68
43115;BME280;28727;50.068;14.452;2023-06-14T00:31:13;99095.69;;;14.14;61.82
43115;BME280;28727;50.068;14.452;2023-06-14T00:33:44;99094.66;;;14.15;61.91
43115;BME280;28727;50.068;14.452;2023-06-14T00:36:16;99084.47;;;14.19;61.87
43115;BME280;28727;50.068;14.452;2023-06-14T00:38:48;99079.38;;;14.24;61.96
43115;BME280;28727;50.068;14.452;2023-06-14T00:41:19;99079.59;;;14.29;61.79
43115;BME280;28727;50.068;14.452;2023-06-14T00:43:51;99082.25;;;14.29;61.63
43115;BME280;28727;50.068;14.452;2023-06-14T00:46:23;99082.25;;;14.29;61.88
43115;BME280;28727;50.068;14.452;2023-06-14T00:48:55;99085.75;;;14.29;61.72
43115;BME280;28727;50.068;14.452;2023-06-14T00:51:47;99091.25;;;14.28;61.22
43115;BME280;28727;50.068;14.452;2023-06-14T00:54:19;99092.00;;;14.15;61.55
43115;BME280;28727;50.068;14.452;2023-06-14T00:56:50;99085.47;;;14.11;61.85
43115;BME280;28727;50.068;14.452;2023-06-14T00:59:23;99078.31;;;14.12;62.06
43115;BME280;28727;50.068;14.452;2023-06-14T01:01:55;99072.19;;;14.11;61.81
43115;BME280;28727;50.068;14.452;2023-06-14T01:04:26;99078.50;;;14.10;61.90
43115;BME280;28727;50.068;14.452;2023-06-14T01:07:02;99074.44;;;14.14;62.06
43115;BME280;28727;50.068;14.452;2023-06-14T01:12:24;99077.31;;;14.13;61.64
43115;BME280;28727;50.068;14.452;2023-06-14T01:14:59;99072.19;;;14.11;61.40
43115;BME280;28727;50.068;14.452;2023-06-14T01:17:31;99084.63;;;14.11;61.77
43115;BME280;28727;50.068;14.452;2023-06-14T01:20:03;99073.19;;;14.10;61.99
43115;BME280;28727;50.068;14.452;2023-06-14T01:22:52;99086.66;;;14.09;61.70
43115;BME280;28727;50.068;14.452;2023-06-14T01:25:25;99079.09;;;14.06;61.55
43115;BME280;28727;50.068;14.452;2023-06-14T01:30:31;99075.59;;;13.99;61.16
43115;BME280;28727;50.068;14.452;2023-06-14T01:33:04;99074.53;;;13.93;61.72
43115;BME280;28727;50.068;14.452;2023-06-14T01:35:37;99071.25;;;13.91;61.68
43115;BME280;28727;50.068;14.452;2023-06-14T01:38:08;99073.31;;;13.89;61.91
43115;BME280;28727;50.068;14.452;2023-06-14T01:40:40;99078.63;;;13.89;61.99
43115;BME280;28727;50.068;14.452;2023-06-14T01:43:14;99075.97;;;13.89;62.01
43115;BME280;28727;50.068;14.452;2023-06-14T01:45:46;99073.91;;;13.91;61.97
43115;BME280;28727;50.068;14.452;2023-06-14T01:48:20;99077.38;;;13.91;62.36
43115;BME280;28727;50.068;14.452;2023-06-14T01:50:52;99075.75;;;13.90;62.33
43115;BME280;28727;50.068;14.452;2023-06-14T01:53:24;99081.28;;;13.89;62.48
43115;BME280;28727;50.068;14.452;2023-06-14T01:55:56;99084.13;;;13.87;62.57
43115;BME280;28727;50.068;14.452;2023-06-14T01:58:28;99083.28;;;13.87;62.70
43115;BME280;28727;50.068;14.452;2023-06-14T02:01:01;99088.78;;;13.85;62.90
43115;BME280;28727;50.068;14.452;2023-06-14T02:03:36;99082.84;;;13.77;63.44
43115;BME280;28727;50.068;14.452;2023-06-14T02:06:09;99081.38;;;13.74;63.08
43115;BME280;28727;50.068;14.452;2023-06-14T02:08:43;99086.28;;;13.71;63.99
43115;BME280;28727;50.068;14.452;2023-06-14T02:11:15;99084.81;;;13.68;64.14
43115;BME280;28727;50.068;14.452;2023-06-14T02:13:47;99084.41;;;13.65;64.43
43115;BME280;28727;50.068;14.452;2023-06-14T02:16:18;99082.94;;;13.62;64.50
43115;BME280;28727;50.068;14.452;2023-06-14T02:18:51;99088.06;;;13.64;64.42
43115;BME280;28727;50.068;14.452;2023-06-14T02:21:24;99079.69;;;13.60;64.69
43115;BME280;28727;50.068;14.452;2023-06-14T02:23:55;99084.16;;;13.60;64.92
43115;BME280;28727;50.068;14.452;2023-06-14T02:26:27;99086.81;;;13.60;64.70
43115;BME280;28727;50.068;14.452;2023-06-14T02:29:00;99092.31;;;13.58;64.65
43115;BME280;28727;50.068;14.452;2023-06-14T02:31:32;99089.66;;;13.58;64.64
43115;BME280;28727;50.068;14.452;2023-06-14T02:34:04;99091.50;;;13.58;64.92
43115;BME280;28727;50.068;14.452;2023-06-14T02:36:36;99095.16;;;13.57;64.86
43115;BME280;28727;50.068;14.452;2023-06-14T02:39:13;99096.16;;;13.56;64.93
43115;BME280;28727;50.068;14.452;2023-06-14T02:41:47;99097.97;;;13.48;65.23
43115;BME280;28727;50.068;14.452;2023-06-14T02:44:19;99098.16;;;13.47;65.62
43115;BME280;28727;50.068;14.452;2023-06-14T02:46:52;99100.38;;;13.43;65.36
43115;BME280;28727;50.068;14.452;2023-06-14T02:49:24;99105.00;;;13.35;65.37
43115;BME280;28727;50.068;14.452;2023-06-14T02:51:56;99104.13;;;13.28;66.26
43115;BME280;28727;50.068;14.452;2023-06-14T02:54:28;99106.59;;;13.29;65.96
43115;BME280;28727;50.068;14.452;2023-06-14T02:57:01;99107.03;;;13.33;65.89
43115;BME280;28727;50.068;14.452;2023-06-14T02:59:34;99106.41;;;13.31;65.65
43115;BME280;28727;50.068;14.452;2023-06-14T03:02:08;99103.75;;;13.31;66.19
43115;BME280;28727;50.068;14.452;2023-06-14T03:04:42;99106.41;;;13.31;66.11
43115;BME280;28727;50.068;14.452;2023-06-14T03:07:19;99107.41;;;13.30;65.85
43115;BME280;28727;50.068;14.452;2023-06-14T03:09:54;99103.13;;;13.29;66.17
43115;BME280;28727;50.068;14.452;2023-06-14T03:12:26;99107.53;;;13.22;66.15
43115;BME280;28727;50.068;14.452;2023-06-14T03:14:58;99112.84;;;13.22;66.31
43115;BME280;28727;50.068;14.452;2023-06-14T03:17:41;99118.16;;;13.22;66.49
43115;BME280;28727;50.068;14.452;2023-06-14T03:20:20;99117.16;;;13.23;65.91
43115;BME280;28727;50.068;14.452;2023-06-14T03:22:52;99118.34;;;13.20;65.94
43115;BME280;28727;50.068;14.452;2023-06-14T03:25:26;99119.56;;;13.18;66.73
43115;BME280;28727;50.068;14.452;2023-06-14T03:28:01;99119.16;;;13.21;66.36
43115;BME280;28727;50.068;14.452;2023-06-14T03:30:34;99118.91;;;13.16;66.27
43115;BME280;28727;50.068;14.452;2023-06-14T03:33:06;99122.22;;;13.18;66.45
43115;BME280;28727;50.068;14.452;2023-06-14T03:35:46;99125.78;;;13.10;66.08
43115;BME280;28727;50.068;14.452;2023-06-14T03:38:19;99125.09;;;13.01;66.51
43115;BME280;28727;50.068;14.452;2023-06-14T03:40:51;99137.06;;;12.97;66.76
43115;BME280;28727;50.068;14.452;2023-06-14T03:43:23;99141.00;;;13.01;66.84
43115;BME280;28727;50.068;14.452;2023-06-14T03:45:56;99132.31;;;13.07;67.07
43115;BME280;28727;50.068;14.452;2023-06-14T03:48:29;99141.50;;;13.11;66.22
43115;BME280;28727;50.068;14.452;2023-06-14T03:51:01;99138.78;;;13.05;65.99
43115;BME280;28727;50.068;14.452;2023-06-14T03:53:34;99143.03;;;12.99;66.40
43115;BME280;28727;50.068;14.452;2023-06-14T03:56:15;99141.63;;;13.03;66.10
43115;BME280;28727;50.068;14.452;2023-06-14T03:58:47;99147.31;;;13.00;66.64
43115;BME280;28727;50.068;14.452;2023-06-14T04:01:19;99154.44;;;13.00;66.78
43115;BME280;28727;50.068;14.452;2023-06-14T04:03:51;99155.34;;;13.07;66.10
43115;BME280;28727;50.068;14.452;2023-06-14T04:06:23;99144.34;;;13.10;66.33
43115;BME280;28727;50.068;14.452;2023-06-14T04:08:56;99152.56;;;13.15;65.76
43115;BME280;28727;50.068;14.452;2023-06-14T04:11:28;99151.75;;;13.15;66.40
43115;BME280;28727;50.068;14.452;2023-06-14T04:14:02;99154.47;;;13.21;66.30
43115;BME280;28727;50.068;14.452;2023-06-14T04:16:34;99153.78;;;13.34;66.07
43115;BME280;28727;50.068;14.452;2023-06-14T04:19:06;99151.22;;;13.47;65.73
43115;BME280;28727;50.068;14.452;2023-06-14T04:21:38;99154.94;;;13.52;65.72
43115;BME280;28727;50.068;14.452;2023-06-14T04:24:11;99158.66;;;13.58;65.59
43115;BME280;28727;50.068;14.452;2023-06-14T04:26:48;99157.50;;;13.67;65.65
43115;BME280;28727;50.068;14.452;2023-06-14T04:29:22;99155.34;;;13.77;64.42
43115;BME280;28727;50.068;14.452;2023-06-14T04:32:04;99150.03;;;13.77;64.99
43115;BME280;28727;50.068;14.452;2023-06-14T04:34:37;99154.63;;;13.90;64.66
43115;BME280;28727;50.068;14.452;2023-06-14T04:37:09;99155.16;;;13.85;64.19
43115;BME280;28727;50.068;14.452;2023-06-14T04:39:43;99155.91;;;13.73;64.39
43115;BME280;28727;50.068;14.452;2023-06-14T04:42:15;99158.53;;;13.66;64.39
43115;BME280;28727;50.068;14.452;2023-06-14T04:44:48;99154.84;;;13.67;64.88
43115;BME280;28727;50.068;14.452;2023-06-14T04:47:21;99157.28;;;13.90;64.93
43115;BME280;28727;50.068;14.452;2023-06-14T04:49:53;99166.38;;;14.15;64.59
43115;BME280;28727;50.068;14.452;2023-06-14T04:52:27;99168.16;;;14.36;64.21
43115;BME280;28727;50.068;14.452;2023-06-14T04:54:59;99167.41;;;14.55;63.38
43115;BME280;28727;50.068;14.452;2023-06-14T04:57:31;99168.94;;;14.78;63.27
43115;BME280;28727;50.068;14.452;2023-06-14T05:00:05;99169.81;;;15.04;62.08
43115;BME280;28727;50.068;14.452;2023-06-14T05:02:39;99158.19;;;15.12;61.18
43115;BME280;28727;50.068;14.452;2023-06-14T05:05:13;99159.63;;;15.28;60.58
43115;BME280;28727;50.068;14.452;2023-06-14T05:07:45;99165.78;;;15.48;60.08
43115;BME280;28727;50.068;14.452;2023-06-14T05:10:18;99167.63;;;15.67;59.54
43115;BME280;28727;50.068;14.452;2023-06-14T05:12:51;99167.44;;;15.82;58.94
43115;BME280;28727;50.068;14.452;2023-06-14T05:15:24;99173.78;;;15.94;58.42
43115;BME280;28727;50.068;14.452;2023-06-14T05:17:57;99164.31;;;16.05;58.09
43115;BME280;28727;50.068;14.452;2023-06-14T05:20:29;99172.50;;;16.03;59.03
43115;BME280;28727;50.068;14.452;2023-06-14T05:23:01;99169.44;;;16.06;57.67
43115;BME280;28727;50.068;14.452;2023-06-14T05:25:34;99175.78;;;16.12;57.96
43115;BME280;28727;50.068;14.452;2023-06-14T05:28:07;99171.88;;;16.14;57.67
43115;BME280;28727;50.068;14.452;2023-06-14T05:30:39;99172.25;;;16.31;57.55
43115;BME280;28727;50.068;14.452;2023-06-14T05:33:11;99180.16;;;16.51;56.83
43115;BME280;28727;50.068;14.452;2023-06-14T05:35:44;99182.19;;;16.55;56.40
43115;BME280;28727;50.068;14.452;2023-06-14T05:38:16;99185.09;;;16.67;56.15
43115;BME280;28727;50.068;14.452;2023-06-14T05:40:48;99179.75;;;16.54;55.79
43115;BME280;28727;50.068;14.452;2023-06-14T05:43:20;99183.25;;;16.61;55.85
43115;BME280;28727;50.068;14.452;2023-06-14T05:45:51;99187.91;;;16.78;55.82
43115;BME280;28727;50.068;14.452;2023-06-14T05:48:23;99176.16;;;16.86;55.76
43115;BME280;28727;50.068;14.452;2023-06-14T05:50:55;99177.06;;;17.05;55.78
43115;BME280;28727;50.068;14.452;2023-06-14T05:53:30;99168.97;;;17.49;55.79
43115;BME280;28727;50.068;14.452;2023-06-14T05:56:02;99168.03;;;17.87;54.20
43115;BME280;28727;50.068;14.452;2023-06-14T05:58:33;99168.34;;;17.79;53.20
43115;BME280;28727;50.068;14.452;2023-06-14T06:01:05;99177.31;;;17.59;53.46
43115;BME280;28727;50.068;14.452;2023-06-14T06:03:37;99170.50;;;17.64;53.34
43115;BME280;28727;50.068;14.452;2023-06-14T06:06:09;99186.91;;;17.67;53.71
43115;BME280;28727;50.068;14.452;2023-06-14T06:08:41;99181.41;;;17.87;53.07
43115;BME280;28727;50.068;14.452;2023-06-14T06:11:13;99191.53;;;18.03;52.71
43115;BME280;28727;50.068;14.452;2023-06-14T06:13:45;99183.44;;;18.10;51.82
43115;BME280;28727;50.068;14.452;2023-06-14T06:16:17;99199.03;;;17.94;51.92
43115;BME280;28727;50.068;14.452;2023-06-14T06:18:51;99195.06;;;17.97;52.02
43115;BME280;28727;50.068;14.452;2023-06-14T06:21:26;99201.56;;;18.08;51.63
43115;BME280;28727;50.068;14.452;2023-06-14T06:23:58;99204.63;;;18.11;51.62
43115;BME280;28727;50.068;14.452;2023-06-14T06:26:30;99209.38;;;18.27;52.01
43115;BME280;28727;50.068;14.452;2023-06-14T06:29:02;99203.81;;;18.29;51.56
43115;BME280;28727;50.068;14.452;2023-06-14T06:31:34;99218.38;;;18.33;51.01
43115;BME280;28727;50.068;14.452;2023-06-14T06:34:06;99206.50;;;18.47;50.22
43115;BME280;28727;50.068;14.452;2023-06-14T06:36:38;99218.97;;;18.53;50.70
43115;BME280;28727;50.068;14.452;2023-06-14T06:39:09;99212.28;;;18.99;50.90
43115;BME280;28727;50.068;14.452;2023-06-14T06:41:42;99217.22;;;19.43;49.73
43115;BME280;28727;50.068;14.452;2023-06-14T06:44:13;99216.69;;;19.65;49.38
43115;BME280;28727;50.068;14.452;2023-06-14T06:46:45;99213.00;;;19.89;48.69
43115;BME280;28727;50.068;14.452;2023-06-14T06:49:18;99216.28;;;20.14;48.65
43115;BME280;28727;50.068;14.452;2023-06-14T06:52:04;99215.53;;;20.65;47.68
43115;BME280;28727;50.068;14.452;2023-06-14T06:54:37;99215.41;;;21.00;46.32
43115;BME280;28727;50.068;14.452;2023-06-14T06:57:09;99221.47;;;21.07;45.17
43115;BME280;28727;50.068;14.452;2023-06-14T06:59:42;99230.28;;;21.31;45.71
43115;BME280;28727;50.068;14.452;2023-06-14T07:02:14;99230.44;;;21.41;45.27
43115;BME280;28727;50.068;14.452;2023-06-14T07:04:46;99225.88;;;21.25;45.07
43115;BME280;28727;50.068;14.452;2023-06-14T07:07:21;99233.28;;;21.35;44.78
43115;BME280;28727;50.068;14.452;2023-06-14T07:09:52;99230.66;;;21.85;43.87
43115;BME280;28727;50.068;14.452;2023-06-14T07:12:24;99228.13;;;21.78;43.18
43115;BME280;28727;50.068;14.452;2023-06-14T07:14:57;99224.50;;;21.56;43.74
43115;BME280;28727;50.068;14.452;2023-06-14T07:17:30;99243.06;;;21.41;44.42
43115;BME280;28727;50.068;14.452;2023-06-14T07:20:03;99232.50;;;21.51;44.22
43115;BME280;28727;50.068;14.452;2023-06-14T07:22:40;99239.75;;;21.50;43.99
43115;BME280;28727;50.068;14.452;2023-06-14T07:25:14;99245.34;;;21.32;42.89
43115;BME280;28727;50.068;14.452;2023-06-14T07:27:48;99245.75;;;21.41;43.03
43115;BME280;28727;50.068;14.452;2023-06-14T07:30:21;99239.28;;;21.53;41.57
43115;BME280;28727;50.068;14.452;2023-06-14T07:32:57;99234.50;;;21.72;41.49
43115;BME280;28727;50.068;14.452;2023-06-14T07:35:29;99238.06;;;21.78;41.88
43115;BME280;28727;50.068;14.452;2023-06-14T07:38:01;99230.41;;;21.70;41.56
43115;BME280;28727;50.068;14.452;2023-06-14T07:40:36;99237.25;;;21.77;42.20
43115;BME280;28727;50.068;14.452;2023-06-14T07:43:08;99241.38;;;21.68;42.08
43115;BME280;28727;50.068;14.452;2023-06-14T07:45:40;99238.22;;;21.71;41.97
43115;BME280;28727;50.068;14.452;2023-06-14T07:48:24;99240.41;;;21.57;41.80
43115;BME280;28727;50.068;14.452;2023-06-14T07:50:59;99244.91;;;21.12;42.81
43115;BME280;28727;50.068;14.452;2023-06-14T07:53:33;99250.97;;;21.31;42.85
43115;BME280;28727;50.068;14.452;2023-06-14T07:56:04;99249.13;;;21.19;41.35
43115;BME280;28727;50.068;14.452;2023-06-14T07:58:36;99261.25;;;21.22;41.78
43115;BME280;28727;50.068;14.452;2023-06-14T08:01:08;99256.50;;;21.41;41.59
43115;BME280;28727;50.068;14.452;2023-06-14T08:03:41;99253.53;;;21.54;41.78
43115;BME280;28727;50.068;14.452;2023-06-14T08:06:13;99253.84;;;21.57;41.67
43115;BME280;28727;50.068;14.452;2023-06-14T08:08:45;99249.53;;;21.56;42.38
43115;BME280;28727;50.068;14.452;2023-06-14T08:11:17;99251.44;;;21.89;42.07
43115;BME280;28727;50.068;14.452;2023-06-14T08:13:49;99249.94;;;21.48;42.63
43115;BME280;28727;50.068;14.452;2023-06-14T08:16:21;99259.47;;;21.28;42.55
43115;BME280;28727;50.068;14.452;2023-06-14T08:18:53;99256.72;;;21.22;43.21
43115;BME280;28727;50.068;14.452;2023-06-14T08:21:25;99252.09;;;21.35;43.33
43115;BME280;28727;50.068;14.452;2023-06-14T08:23:59;99253.41;;;21.77;43.21
43115;BME280;28727;50.068;14.452;2023-06-14T08:26:32;99250.31;;;22.57;42.21
43115;BME280;28727;50.068;14.452;2023-06-14T08:29:04;99240.66;;;23.00;40.54
43115;BME280;28727;50.068;14.452;2023-06-14T08:31:36;99242.28;;;23.27;39.71
43115;BME280;28727;50.068;14.452;2023-06-14T08:34:08;99247.69;;;23.49;39.50
43115;BME280;28727;50.068;14.452;2023-06-14T08:36:42;99238.19;;;23.74;37.97
43115;BME280;28727;50.068;14.452;2023-06-14T08:39:14;99252.19;;;23.44;38.54
43115;BME280;28727;50.068;14.452;2023-06-14T08:41:46;99249.03;;;22.81;38.56
43115;BME280;28727;50.068;14.452;2023-06-14T08:44:21;99247.50;;;22.47;38.62
43115;BME280;28727;50.068;14.452;2023-06-14T08:46:55;99257.34;;;22.03;39.03
43115;BME280;28727;50.068;14.452;2023-06-14T08:49:29;99255.91;;;21.67;39.43
43115;BME280;28727;50.068;14.452;2023-06-14T08:52:02;99258.28;;;21.35;40.37
43115;BME280;28727;50.068;14.452;2023-06-14T08:54:35;99264.69;;;21.17;40.70
43115;BME280;28727;50.068;14.452;2023-06-14T08:57:15;99262.66;;;21.24;40.37
43115;BME280;28727;50.068;14.452;2023-06-14T08:59:49;99265.22;;;21.31;40.11
43115;BME280;28727;50.068;14.452;2023-06-14T09:02:24;99264.19;;;21.49;40.31
43115;BME280;28727;50.068;14.452;2023-06-14T09:04:56;99266.91;;;21.82;39.59
43115;BME280;28727;50.068;14.452;2023-06-14T09:07:31;99255.88;;;21.95;38.39
43115;BME280;28727;50.068;14.452;2023-06-14T09:10:14;99265.97;;;22.22;37.75
43115;BME280;28727;50.068;14.452;2023-06-14T09:12:46;99263.00;;;22.40;37.87
43115;BME280;28727;50.068;14.452;2023-06-14T09:15:18;99258.09;;;22.54;37.01
43115;BME280;28727;50.068;14.452;2023-06-14T09:17:53;99260.56;;;22.99;37.01
43115;BME280;28727;50.068;14.452;2023-06-14T09:20:25;99256.63;;;23.33;37.00
43115;BME280;28727;50.068;14.452;2023-06-14T09:22:57;99261.75;;;23.56;36.65
43115;BME280;28727;50.068;14.452;2023-06-14T09:25:32;99246.53;;;23.72;36.74
43115;BME280;28727;50.068;14.452;2023-06-14T09:28:11;99246.44;;;23.94;35.79
43115;BME280;28727;50.068;14.452;2023-06-14T09:30:42;99248.66;;;23.97;35.31
43115;BME280;28727;50.068;14.452;2023-06-14T09:33:17;99253.00;;;23.71;35.96
43115;BME280;28727;50.068;14.452;2023-06-14T09:35:54;99251.16;;;23.77;35.96
43115;BME280;28727;50.068;14.452;2023-06-14T09:38:26;99246.97;;;23.91;36.20
43115;BME280;28727;50.068;14.452;2023-06-14T09:40:58;99245.13;;;24.33;34.17
43115;BME280;28727;50.068;14.452;2023-06-14T09:43:30;99248.97;;;24.05;35.27
43115;BME280;28727;50.068;14.452;2023-06-14T09:46:07;99243.47;;;23.37;36.54
43115;BME280;28727;50.068;14.452;2023-06-14T09:48:39;99244.41;;;22.99;37.73
43115;BME280;28727;50.068;14.452;2023-06-14T09:51:15;99248.50;;;22.63;37.40
43115;BME280;28727;50.068;14.452;2023-06-14T09:53:50;99246.19;;;22.50;37.79
43115;BME280;28727;50.068;14.452;2023-06-14T09:56:29;99238.53;;;22.63;37.25
43115;BME280;28727;50.068;14.452;2023-06-14T09:59:06;99246.88;;;22.78;37.40
43115;BME280;28727;50.068;14.452;2023-06-14T10:01:42;99250.28;;;22.74;36.75
43115;BME280;28727;50.068;14.452;2023-06-14T10:04:14;99247.13;;;22.60;37.22
43115;BME280;28727;50.068;14.452;2023-06-14T10:06:47;99244.31;;;22.50;37.00
43115;BME280;28727;50.068;14.452;2023-06-14T10:09:22;99237.31;;;22.71;37.27
43115;BME280;28727;50.068;14.452;2023-06-14T10:11:54;99226.94;;;23.01;36.81
43115;BME280;28727;50.068;14.452;2023-06-14T10:14:26;99223.59;;;23.70;34.74
43115;BME280;28727;50.068;14.452;2023-06-14T10:17:08;99223.34;;;23.71;34.54
43115;BME280;28727;50.068;14.452;2023-06-14T10:19:48;99231.44;;;23.44;35.08
43115;BME280;28727;50.068;14.452;2023-06-14T10:22:32;99221.44;;;22.91;35.26
43115;BME280;28727;50.068;14.452;2023-06-14T10:25:07;99226.63;;;22.76;35.65
43115;BME280;28727;50.068;14.452;2023-06-14T10:27:44;99235.16;;;22.90;35.47
43115;BME280;28727;50.068;14.452;2023-06-14T10:30:28;99231.53;;;22.62;35.86
43115;BME280;28727;50.068;14.452;2023-06-14T10:33:05;99232.16;;;22.48;36.14
43115;BME280;28727;50.068;14.452;2023-06-14T10:35:38;99228.88;;;22.45;36.13
43115;BME280;28727;50.068;14.452;2023-06-14T10:38:11;99227.25;;;22.44;35.97
43115;BME280;28727;50.068;14.452;2023-06-14T10:40:52;99222.56;;;22.57;35.85
43115;BME280;28727;50.068;14.452;2023-06-14T10:43:25;99222.63;;;22.40;34.35
43115;BME280;28727;50.068;14.452;2023-06-14T10:46:17;99223.31;;;22.30;34.98
43115;BME280;28727;50.068;14.452;2023-06-14T10:48:57;99214.41;;;22.30;34.70
43115;BME280;28727;50.068;14.452;2023-06-14T10:51:29;99217.47;;;22.77;34.78
43115;BME280;28727;50.068;14.452;2023-06-14T10:54:01;99223.28;;;23.39;33.74
43115;BME280;28727;50.068;14.452;2023-06-14T10:56:33;99212.50;;;23.66;32.98
43115;BME280;28727;50.068;14.452;2023-06-14T10:59:06;99203.97;;;23.79;32.23
43115;BME280;28727;50.068;14.452;2023-06-14T11:04:51;99206.47;;;24.28;31.95
43115;BME280;28727;50.068;14.452;2023-06-14T11:07:51;99199.81;;;24.45;30.89
43115;BME280;28727;50.068;14.452;2023-06-14T11:10:38;99194.97;;;24.47;31.79
43115;BME280;28727;50.068;14.452;2023-06-14T11:13:10;99198.34;;;24.75;31.49
43115;BME280;28727;50.068;14.452;2023-06-14T11:15:47;99196.53;;;24.91;30.97
43115;BME280;28727;50.068;14.452;2023-06-14T11:18:19;99194.94;;;25.00;30.00
43115;BME280;28727;50.068;14.452;2023-06-14T11:20:55;99201.59;;;24.82;30.29
43115;BME280;28727;50.068;14.452;2023-06-14T11:23:27;99197.22;;;24.66;31.34
43115;BME280;28727;50.068;14.452;2023-06-14T11:25:59;99199.00;;;24.40;32.03
43115;BME280;28727;50.068;14.452;2023-06-14T11:28:40;99206.25;;;24.34;31.90
43115;BME280;28727;50.068;14.452;2023-06-14T11:31:12;99190.63;;;24.41;32.40
43115;BME280;28727;50.068;14.452;2023-06-14T11:33:49;99191.22;;;24.54;32.21
43115;BME280;28727;50.068;14.452;2023-06-14T11:36:22;99190.97;;;24.55;31.34
43115;BME280;28727;50.068;14.452;2023-06-14T11:39:04;99197.25;;;24.71;32.21
43115;BME280;28727;50.068;14.452;2023-06-14T11:41:44;99196.06;;;24.46;31.17
43115;BME280;28727;50.068;14.452;2023-06-14T11:44:18;99187.41;;;24.02;31.95
43115;BME280;28727;50.068;14.452;2023-06-14T11:46:50;99192.22;;;23.95;32.00
43115;BME280;28727;50.068;14.452;2023-06-14T11:49:23;99185.97;;;23.90;32.09
43115;BME280;28727;50.068;14.452;2023-06-14T11:51:55;99184.56;;;23.82;32.62
43115;BME280;28727;50.068;14.452;2023-06-14T11:54:27;99183.50;;;23.51;32.45
43115;BME280;28727;50.068;14.452;2023-06-14T11:56:59;99186.81;;;23.32;32.79
43115;BME280;28727;50.068;14.452;2023-06-14T11:59:31;99191.53;;;22.93;32.89
43115;BME280;28727;50.068;14.452;2023-06-14T12:02:04;99184.50;;;22.70;33.44
43115;BME280;28727;50.068;14.452;2023-06-14T12:04:35;99179.72;;;22.33;33.79
43115;BME280;28727;50.068;14.452;2023-06-14T12:07:11;99185.31;;;22.10;34.42
43115;BME280;28727;50.068;14.452;2023-06-14T12:12:25;99184.69;;;22.20;34.57
43115;BME280;28727;50.068;14.452;2023-06-14T12:14:58;99179.66;;;22.28;35.42
43115;BME280;28727;50.068;14.452;2023-06-14T12:17:34;99182.00;;;22.41;35.31
43115;BME280;28727;50.068;14.452;2023-06-14T12:20:11;99176.06;;;22.61;35.36
43115;BME280;28727;50.068;14.452;2023-06-14T12:22:56;99173.91;;;22.63;33.23
43115;BME280;28727;50.068;14.452;2023-06-14T12:25:30;99180.47;;;22.29;34.57
43115;BME280;28727;50.068;14.452;2023-06-14T12:28:09;99180.38;;;22.40;34.37
43115;BME280;28727;50.068;14.452;2023-06-14T12:30:41;99177.66;;;22.40;33.63
43115;BME280;28727;50.068;14.452;2023-06-14T12:33:13;99177.19;;;22.43;33.45
43115;BME280;28727;50.068;14.452;2023-06-14T12:35:45;99175.06;;;22.67;33.31
43115;BME280;28727;50.068;14.452;2023-06-14T12:38:17;99180.72;;;23.14;34.34
43115;BME280;28727;50.068;14.452;2023-06-14T12:40:49;99162.28;;;23.33;34.30
43115;BME280;28727;50.068;14.452;2023-06-14T12:43:21;99170.03;;;23.51;34.06
43115;BME280;28727;50.068;14.452;2023-06-14T12:45:53;99174.38;;;23.25;33.02
43115;BME280;28727;50.068;14.452;2023-06-14T12:48:26;99178.72;;;23.05;32.36
43115;BME280;28727;50.068;14.452;2023-06-14T12:51:02;99173.19;;;22.90;32.41
43115;BME280;28727;50.068;14.452;2023-06-14T12:53:34;99185.72;;;22.79;32.04
43115;BME280;28727;50.068;14.452;2023-06-14T12:56:06;99179.59;;;22.83;32.25
43115;BME280;28727;50.068;14.452;2023-06-14T12:58:42;99182.13;;;22.95;31.92
43115;BME280;28727;50.068;14.452;2023-06-14T13:01:14;99175.84;;;23.11;32.58
43115;BME280;28727;50.068;14.452;2023-06-14T13:03:49;99179.88;;;23.09;31.80
43115;BME280;28727;50.068;14.452;2023-06-14T13:06:22;99173.53;;;22.98;32.80
43115;BME280;28727;50.068;14.452;2023-06-14T13:08:54;99180.88;;;23.03;32.26
43115;BME280;28727;50.068;14.452;2023-06-14T13:11:29;99178.69;;;23.00;33.22
43115;BME280;28727;50.068;14.452;2023-06-14T13:14:02;99178.09;;;22.98;33.31
43115;BME280;28727;50.068;14.452;2023-06-14T13:16:52;99185.03;;;22.89;33.68
43115;BME280;28727;50.068;14.452;2023-06-14T13:19:24;99188.00;;;22.70;33.36
43115;BME280;28727;50.068;14.452;2023-06-14T13:21:56;99183.19;;;22.51;33.65
43115;BME280;28727;50.068;14.452;2023-06-14T13:24:29;99182.44;;;22.55;33.63
43115;BME280;28727;50.068;14.452;2023-06-14T13:27:01;99189.31;;;22.46;33.55
43115;BME280;28727;50.068;14.452;2023-06-14T13:29:33;99192.59;;;22.48;33.37
43115;BME280;28727;50.068;14.452;2023-06-14T13:32:07;99189.38;;;22.51;33.21
43115;BME280;28727;50.068;14.452;2023-06-14T13:34:39;99182.31;;;22.45;32.54